createdAt,value
2023-01-02T00:01:24.729Z,60.36
2023-01-02T00:03:52.766Z,60.25
2023-01-02T00:06:21.092Z,59.40
2023-01-02T00:08:48.855Z,59.59
2023-01-02T00:11:16.616Z,59.05
2023-01-02T00:13:46.676Z,58.99
2023-01-02T00:16:14.509Z,60.17
2023-01-02T00:18:42.335Z,59.37
2023-01-02T00:21:11.069Z,60.30
2023-01-02T00:23:39.230Z,60.25
2023-01-02T00:26:07.794Z,60.19
2023-01-02T00:28:37.355Z,60.46
2023-01-02T00:31:09.050Z,60.46
2023-01-02T00:33:38.166Z,59.85
2023-01-02T00:36:07.527Z,59.86
2023-01-02T00:38:38.220Z,60.48
2023-01-02T00:41:07.771Z,60.20
2023-01-02T00:43:35.592Z,60.31
2023-01-02T00:46:07.776Z,59.90
2023-01-02T00:48:41.301Z,60.04
2023-01-02T00:51:09.868Z,60.32
2023-01-02T00:53:38.134Z,59.37
2023-01-02T00:56:06.877Z,60.21
2023-01-02T00:58:34.859Z,60.50
2023-01-02T01:01:03.012Z,60.10
2023-01-02T01:03:31.662Z,60.83
2023-01-02T01:06:00.813Z,60.64
2023-01-02T01:08:28.583Z,61.03
2023-01-02T01:10:56.642Z,61.08
2023-01-02T01:13:24.397Z,61.06
2023-01-02T01:15:52.656Z,60.30
2023-01-02T01:18:20.918Z,60.18
2023-01-02T01:20:48.709Z,60.38
2023-01-02T01:23:17.834Z,60.33
2023-01-02T01:25:46.040Z,61.52
2023-01-02T01:28:13.815Z,62.29
2023-01-02T01:30:41.601Z,62.79
2023-01-02T01:33:09.835Z,63.44
2023-01-02T01:35:37.715Z,64.99
2023-01-02T01:38:05.520Z,66.00
2023-01-02T01:40:43.176Z,65.89
2023-01-02T01:43:15.301Z,66.12
2023-01-02T01:45:45.358Z,67.11
2023-01-02T01:48:17.726Z,67.20
2023-01-02T01:50:46.430Z,66.64
2023-01-02T01:53:19.545Z,66.43
2023-01-02T01:55:53.001Z,66.89
2023-01-02T01:58:24.716Z,67.40
2023-01-02T02:00:53.417Z,66.91
2023-01-02T02:03:25.449Z,67.10
2023-01-02T02:05:53.685Z,66.31
2023-01-02T02:08:26.211Z,67.18
2023-01-02T02:10:57.365Z,67.94
2023-01-02T02:13:25.280Z,67.95
2023-01-02T02:16:04.940Z,68.75
2023-01-02T02:18:50.995Z,69.56
2023-01-02T02:21:40.723Z,70.04
2023-01-02T02:24:44.914Z,70.60
2023-01-02T02:27:28.851Z,70.68
2023-01-02T02:30:14.132Z,71.34
2023-01-02T02:32:57.896Z,70.86
2023-01-02T02:35:36.952Z,70.97
2023-01-02T02:38:10.303Z,69.73
2023-01-02T02:40:49.092Z,69.40
2023-01-02T02:43:26.457Z,69.28
2023-01-02T02:46:05.358Z,69.47
2023-01-02T02:48:46.564Z,68.33
2023-01-02T02:51:19.922Z,67.62
2023-01-02T02:53:55.250Z,67.28
2023-01-02T02:56:26.869Z,66.92
2023-01-02T02:58:56.034Z,66.66
2023-01-02T03:01:30.529Z,66.79
2023-01-02T03:03:59.681Z,67.70
2023-01-02T03:06:55.232Z,67.82
2023-01-02T03:09:35.664Z,66.95
2023-01-02T03:12:14.129Z,66.35
2023-01-02T03:14:47.690Z,65.66
2023-01-02T03:17:28.064Z,64.87
2023-01-02T03:20:02.165Z,64.29
2023-01-02T03:22:33.332Z,63.49
2023-01-02T03:25:01.488Z,63.17
2023-01-02T03:27:34.020Z,62.89
2023-01-02T03:30:05.820Z,63.03
2023-01-02T03:32:39.014Z,64.43
2023-01-02T03:35:11.916Z,65.51
2023-01-02T03:37:45.285Z,65.49
2023-01-02T03:40:18.747Z,64.44
2023-01-02T03:42:52.023Z,64.83
2023-01-02T03:45:26.009Z,65.43
2023-01-02T03:48:01.177Z,66.19
2023-01-02T03:50:33.761Z,65.82
2023-01-02T03:53:02.492Z,64.46
2023-01-02T03:55:35.999Z,64.81
2023-01-02T03:58:12.228Z,63.91
2023-01-02T04:00:52.717Z,63.56
2023-01-02T04:03:26.360Z,62.81
2023-01-02T04:06:01.223Z,62.88
2023-01-02T04:08:36.106Z,62.32
2023-01-02T04:11:05.782Z,62.62
2023-01-02T04:13:39.682Z,63.07
2023-01-02T04:16:10.549Z,62.71
2023-01-02T04:18:46.868Z,62.72
2023-01-02T04:21:19.601Z,62.37
2023-01-02T04:23:51.786Z,65.19
2023-01-02T04:26:25.621Z,65.91
2023-01-02T04:28:54.502Z,65.99
2023-01-02T04:31:27.198Z,65.17
2023-01-02T04:33:59.914Z,65.19
2023-01-02T04:36:28.797Z,66.23
2023-01-02T04:38:56.815Z,65.15
2023-01-02T04:41:27.463Z,64.39
2023-01-02T04:43:55.417Z,64.54
2023-01-02T04:46:23.716Z,64.25
2023-01-02T04:48:51.601Z,64.07
2023-01-02T04:51:20.842Z,64.42
2023-01-02T04:53:49.264Z,64.53
2023-01-02T04:56:17.589Z,63.70
2023-01-02T04:58:48.216Z,64.23
2023-01-02T05:01:18.967Z,64.04
2023-01-02T05:03:48.755Z,65.50
2023-01-02T05:06:17.286Z,65.86
2023-01-02T05:08:46.913Z,65.44
2023-01-02T05:11:16.841Z,65.37
2023-01-02T05:13:45.364Z,64.88
2023-01-02T05:16:13.593Z,64.56
2023-01-02T05:18:41.994Z,64.73
2023-01-02T05:21:33.155Z,64.35
2023-01-02T05:24:03.487Z,63.38
2023-01-02T05:26:33.475Z,64.14
2023-01-02T05:29:02.278Z,63.94
2023-01-02T05:31:30.308Z,64.29
2023-01-02T05:34:00.620Z,64.33
2023-01-02T05:36:29.258Z,64.35
2023-01-02T05:38:58.017Z,65.80
2023-01-02T05:41:27.193Z,66.40
2023-01-02T05:43:56.332Z,66.82
2023-01-02T05:46:24.612Z,66.47
2023-01-02T05:48:52.472Z,65.60
2023-01-02T05:51:20.627Z,65.71
2023-01-02T05:53:48.551Z,64.90
2023-01-02T05:56:18.251Z,63.71
2023-01-02T05:58:49.491Z,63.81
2023-01-02T06:01:19.202Z,63.88
2023-01-02T06:03:48.194Z,63.92
2023-01-02T06:06:18.185Z,64.99
2023-01-02T06:08:46.541Z,65.89
2023-01-02T06:11:14.742Z,66.86
2023-01-02T06:13:42.996Z,67.57
2023-01-02T06:16:12.355Z,68.59
2023-01-02T06:18:41.418Z,69.14
2023-01-02T06:21:11.409Z,69.66
2023-01-02T06:23:40.091Z,69.92
2023-01-02T06:26:09.763Z,69.92
2023-01-02T06:28:38.285Z,70.85
2023-01-02T06:31:07.962Z,71.09
2023-01-02T06:33:37.596Z,71.41
2023-01-02T06:36:07.786Z,71.95
2023-01-02T06:38:36.404Z,72.17
2023-01-02T06:41:05.682Z,72.30
2023-01-02T06:43:34.621Z,72.17
2023-01-02T06:46:04.293Z,71.35
2023-01-02T06:48:33.132Z,70.49
2023-01-02T06:51:05.673Z,69.99
2023-01-02T06:53:35.195Z,70.04
2023-01-02T06:56:03.106Z,70.21
2023-01-02T06:58:32.707Z,70.77
2023-01-02T07:01:03.850Z,71.49
2023-01-02T07:03:32.149Z,71.36
2023-01-02T07:06:05.999Z,72.01
2023-01-02T07:08:34.250Z,72.02
2023-01-02T07:11:10.972Z,72.34
2023-01-02T07:13:39.566Z,72.39
2023-01-02T07:16:09.477Z,72.96
2023-01-02T07:18:38.688Z,72.50
2023-01-02T07:21:10.228Z,72.79
2023-01-02T07:23:38.685Z,71.54
2023-01-02T07:26:07.921Z,71.43
2023-01-02T07:28:36.801Z,72.43
2023-01-02T07:31:08.540Z,72.54
2023-01-02T07:33:36.932Z,72.95
2023-01-02T07:36:08.706Z,73.28
2023-01-02T07:38:38.220Z,73.79
2023-01-02T07:41:06.504Z,72.28
2023-01-02T07:43:34.721Z,70.70
2023-01-02T07:46:06.219Z,68.01
2023-01-02T07:48:34.541Z,68.25
2023-01-02T07:51:02.906Z,67.76
2023-01-02T07:53:32.377Z,67.36
2023-01-02T07:56:03.311Z,66.54
2023-01-02T07:58:31.618Z,65.88
2023-01-02T08:01:05.347Z,64.49
2023-01-02T08:03:34.388Z,64.24
2023-01-02T08:06:07.174Z,64.48
2023-01-02T08:08:36.993Z,63.31
2023-01-02T08:11:06.539Z,63.47
2023-01-02T08:13:34.658Z,63.10
2023-01-02T08:16:07.365Z,63.13
2023-01-02T08:18:35.467Z,62.67
2023-01-02T08:21:03.380Z,62.14
2023-01-02T08:23:32.767Z,61.70
2023-01-02T08:26:02.903Z,60.96
2023-01-02T08:28:31.353Z,61.62
2023-01-02T08:31:00.336Z,61.48
2023-01-02T08:33:28.294Z,61.43
2023-01-02T08:35:56.668Z,60.71
2023-01-02T08:38:25.289Z,59.80
2023-01-02T08:40:53.203Z,60.50
2023-01-02T08:43:22.411Z,61.10
2023-01-02T08:45:50.678Z,60.84
2023-01-02T08:48:21.060Z,60.75
2023-01-02T08:50:49.694Z,60.87
2023-01-02T08:53:18.005Z,60.73
2023-01-02T08:55:45.922Z,60.60
2023-01-02T08:58:13.825Z,59.59
2023-01-02T09:00:43.129Z,59.74
2023-01-02T09:03:11.037Z,59.09
2023-01-02T09:05:38.809Z,58.66
2023-01-02T09:08:06.956Z,57.66
2023-01-02T09:10:34.799Z,57.56
2023-01-02T09:13:02.653Z,57.36
2023-01-02T09:15:32.146Z,57.11
2023-01-02T09:18:01.327Z,56.90
2023-01-02T09:20:29.165Z,56.19
2023-01-02T09:22:57.334Z,56.52
2023-01-02T09:25:25.133Z,55.52
2023-01-02T09:27:53.266Z,55.87
2023-01-02T09:30:21.883Z,55.49
2023-01-02T09:32:50.935Z,55.88
2023-01-02T09:35:20.187Z,55.13
2023-01-02T09:37:48.337Z,55.10
2023-01-02T09:40:16.252Z,55.70
2023-01-02T09:42:46.288Z,54.73
2023-01-02T09:45:15.895Z,53.27
2023-01-02T09:47:47.121Z,53.54
2023-01-02T09:50:21.593Z,52.57
2023-01-02T09:52:56.230Z,52.15
2023-01-02T09:55:34.550Z,51.65
2023-01-02T09:58:10.521Z,52.17
2023-01-02T10:00:40.117Z,51.42
2023-01-02T10:03:19.426Z,51.35
2023-01-02T10:06:08.658Z,51.97
2023-01-02T10:08:50.189Z,51.10
2023-01-02T10:11:27.521Z,50.52
2023-01-02T10:16:52.010Z,50.62
2023-01-02T10:19:25.096Z,49.99
2023-01-02T10:21:59.194Z,48.74
2023-01-02T10:24:41.296Z,49.12
2023-01-02T10:27:14.657Z,48.33
2023-01-02T10:29:45.994Z,48.18
2023-01-02T10:32:17.814Z,48.61
2023-01-02T10:34:54.913Z,48.14
2023-01-02T10:37:23.151Z,48.35
2023-01-02T10:39:53.097Z,49.31
2023-01-02T10:42:21.417Z,51.58
2023-01-02T10:44:49.718Z,53.30
2023-01-02T10:47:22.796Z,53.64
2023-01-02T10:49:53.416Z,54.03
2023-01-02T10:52:26.228Z,54.49
2023-01-02T10:55:00.087Z,54.37
2023-01-02T10:57:39.468Z,54.23
2023-01-02T11:00:27.711Z,54.23
2023-01-02T11:02:58.216Z,54.08
2023-01-02T11:05:29.490Z,53.94
2023-01-02T11:07:57.821Z,54.07
2023-01-02T11:10:30.071Z,52.82
2023-01-02T11:13:02.443Z,53.03
2023-01-02T11:15:34.987Z,52.41
2023-01-02T11:18:04.633Z,52.28
2023-01-02T11:20:37.063Z,52.20
2023-01-02T11:23:05.906Z,52.65
2023-01-02T11:25:40.836Z,51.98
2023-01-02T11:28:18.164Z,51.34
2023-01-02T11:30:48.398Z,51.03
2023-01-02T11:33:28.116Z,51.32
2023-01-02T11:35:58.776Z,51.15
2023-01-02T11:38:30.803Z,50.38
2023-01-02T11:41:02.765Z,50.40
2023-01-02T11:43:49.288Z,50.44
2023-01-02T11:46:29.269Z,50.85
2023-01-02T11:49:05.323Z,50.68
2023-01-02T11:51:38.405Z,50.54
2023-01-02T11:54:13.970Z,50.83
2023-01-02T11:56:46.452Z,50.95
2023-01-02T11:59:17.750Z,51.06
2023-01-02T12:02:00.988Z,51.44
2023-01-02T12:04:29.457Z,52.24
2023-01-02T12:07:10.471Z,51.93
2023-01-02T12:09:50.979Z,52.18
2023-01-02T12:12:33.656Z,51.13
2023-01-02T12:15:34.855Z,52.10
2023-01-02T12:18:12.940Z,52.51
2023-01-02T12:20:48.202Z,52.58
2023-01-02T12:23:34.309Z,52.86
2023-01-02T12:26:10.029Z,53.38
2023-01-02T12:29:14.828Z,53.50
2023-01-02T12:32:18.323Z,52.29
2023-01-02T12:35:03.042Z,52.15
2023-01-02T12:37:44.629Z,52.36
2023-01-02T12:40:37.382Z,51.94
2023-01-02T12:43:32.998Z,52.00
2023-01-02T12:46:12.987Z,51.52
2023-01-02T12:48:56.702Z,51.71
2023-01-02T12:51:32.061Z,51.79
2023-01-02T12:54:19.699Z,52.35
2023-01-02T12:56:57.979Z,52.00
2023-01-02T12:59:49.158Z,52.05
2023-01-02T13:02:33.114Z,51.87
2023-01-02T13:05:06.713Z,52.53
2023-01-02T13:07:41.374Z,52.49
2023-01-02T13:10:17.239Z,52.41
2023-01-02T13:12:46.681Z,51.80
2023-01-02T13:15:20.993Z,51.86
2023-01-02T13:18:01.996Z,52.73
2023-01-02T13:20:42.116Z,52.86
2023-01-02T13:23:27.044Z,53.57
2023-01-02T13:25:59.908Z,54.32
2023-01-02T13:28:27.914Z,54.84
2023-01-02T13:33:58.117Z,55.29
2023-01-02T13:36:28.831Z,55.39
2023-01-02T13:41:20.778Z,55.38
2023-01-02T13:43:53.775Z,55.04
2023-01-02T13:47:01.969Z,55.08
2023-01-02T13:49:36.657Z,54.65
2023-01-02T13:52:05.815Z,54.95
2023-01-02T13:54:38.222Z,54.92
2023-01-02T13:57:33.299Z,54.63
2023-01-02T14:00:02.772Z,54.83
2023-01-02T14:02:30.829Z,55.50
2023-01-02T14:05:00.541Z,56.20
2023-01-02T14:07:48.800Z,56.64
2023-01-02T14:10:45.440Z,56.45
2023-01-02T14:13:35.759Z,56.55
2023-01-02T14:16:40.700Z,56.96
2023-01-02T14:19:26.008Z,56.71
2023-01-02T14:22:11.894Z,57.51
2023-01-02T14:24:43.176Z,57.32
2023-01-02T14:27:22.772Z,56.99
2023-01-02T14:29:53.805Z,56.63
2023-01-02T14:32:28.730Z,56.40
2023-01-02T14:34:59.199Z,56.51
2023-01-02T14:37:36.646Z,56.76
2023-01-02T14:40:12.674Z,56.95
2023-01-02T14:43:02.990Z,57.28
2023-01-02T14:45:31.508Z,57.71
2023-01-02T14:48:07.112Z,57.17
2023-01-02T14:50:36.734Z,56.94
2023-01-02T14:53:16.124Z,57.56
2023-01-02T14:55:46.467Z,57.52
2023-01-02T14:58:20.358Z,57.18
2023-01-02T15:00:49.799Z,57.90
2023-01-02T15:03:28.290Z,58.47
2023-01-02T15:06:00.728Z,59.05
2023-01-02T15:08:37.864Z,58.68
2023-01-02T15:11:35.573Z,59.83
2023-01-02T15:14:06.339Z,60.10
2023-01-02T15:16:42.605Z,60.27
2023-01-02T15:19:20.062Z,60.23
2023-01-02T15:21:48.361Z,60.47
2023-01-02T15:24:21.582Z,61.00
2023-01-02T15:26:49.584Z,60.84
2023-01-02T15:29:23.976Z,61.31
2023-01-02T15:31:54.219Z,61.38
2023-01-02T15:34:30.315Z,61.36
2023-01-02T15:37:01.952Z,61.68
2023-01-02T15:39:37.848Z,61.90
2023-01-02T15:42:26.884Z,61.98
2023-01-02T15:45:14.040Z,61.80
2023-01-02T15:47:46.667Z,61.88
2023-01-02T15:50:19.286Z,61.84
2023-01-02T15:52:49.933Z,61.96
2023-01-02T15:55:21.698Z,61.36
2023-01-02T15:57:53.322Z,61.49
2023-01-02T16:00:38.189Z,61.23
2023-01-02T16:03:06.280Z,60.73
2023-01-02T16:05:47.808Z,58.98
2023-01-02T16:08:21.761Z,58.72
2023-01-02T16:11:01.616Z,58.78
2023-01-02T16:13:49.469Z,58.04
2023-01-02T16:16:19.879Z,58.62
2023-01-02T16:18:52.826Z,58.71
2023-01-02T16:21:22.560Z,59.01
2023-01-02T16:23:53.547Z,59.28
2023-01-02T16:26:31.275Z,58.73
2023-01-02T16:28:59.421Z,59.14
2023-01-02T16:31:28.978Z,59.44
2023-01-02T16:34:16.379Z,59.68
2023-01-02T16:36:44.342Z,60.31
2023-01-02T16:39:45.962Z,60.48
2023-01-02T16:42:32.711Z,60.46
2023-01-02T16:45:01.105Z,60.12
2023-01-02T16:47:35.376Z,60.32
2023-01-02T16:50:05.620Z,60.82
2023-01-02T16:52:33.880Z,61.29
2023-01-02T16:55:02.143Z,61.97
2023-01-02T16:57:31.833Z,62.00
2023-01-02T16:59:59.671Z,62.25
2023-01-02T17:02:27.999Z,62.78
2023-01-02T17:04:56.309Z,63.01
2023-01-02T17:07:24.099Z,62.91
2023-01-02T17:09:52.182Z,63.23
2023-01-02T17:12:20.084Z,64.01
2023-01-02T17:14:49.253Z,63.74
2023-01-02T17:17:17.052Z,64.18
2023-01-02T17:19:45.316Z,64.29
2023-01-02T17:22:13.178Z,64.91
2023-01-02T17:24:41.178Z,64.81
2023-01-02T17:27:09.454Z,64.88
2023-01-02T17:29:37.329Z,64.92
2023-01-02T17:32:06.929Z,65.23
2023-01-02T17:34:34.874Z,65.96
2023-01-02T17:37:02.725Z,65.89
2023-01-02T17:39:30.665Z,66.56
2023-01-02T17:41:58.727Z,66.67
2023-01-02T17:44:28.553Z,67.34
2023-01-02T17:47:23.274Z,67.25
2023-01-02T17:49:46.036Z,67.47
2023-01-02T17:52:13.901Z,68.06
2023-01-02T17:54:41.945Z,68.17
2023-01-02T17:57:11.051Z,68.28
2023-01-02T17:59:39.754Z,68.74
2023-01-02T18:02:08.921Z,68.61
2023-01-02T18:04:40.151Z,69.26
2023-01-02T18:07:09.417Z,69.41
2023-01-02T18:09:37.260Z,69.54
2023-01-02T18:12:05.501Z,70.36
2023-01-02T18:14:33.404Z,70.09
2023-01-02T18:17:10.805Z,70.53
2023-01-02T18:19:39.251Z,70.85
2023-01-02T18:22:13.603Z,71.92
2023-01-02T18:24:42.875Z,71.74
2023-01-02T18:27:23.165Z,71.29
2023-01-02T18:29:59.088Z,71.41
2023-01-02T18:32:34.341Z,70.67
2023-01-02T18:35:37.924Z,70.96
2023-01-02T18:38:15.370Z,70.89
2023-01-02T18:40:43.259Z,71.61
2023-01-02T18:43:21.080Z,71.82
2023-01-02T18:45:55.146Z,72.88
2023-01-02T18:48:24.524Z,73.14
2023-01-02T18:50:58.575Z,73.80
2023-01-02T18:53:31.592Z,74.28
2023-01-02T18:56:02.184Z,74.34
2023-01-02T18:58:39.869Z,74.63
2023-01-02T19:01:24.097Z,74.36
2023-01-02T19:03:57.254Z,73.95
2023-01-02T19:06:27.444Z,74.13
2023-01-02T19:09:03.331Z,74.55
2023-01-02T19:11:52.434Z,74.74
2023-01-02T19:14:25.294Z,75.26
2023-01-02T19:17:00.723Z,76.00
2023-01-02T19:19:29.715Z,74.59
2023-01-02T19:21:59.618Z,74.39
2023-01-02T19:24:36.511Z,74.43
2023-01-02T19:27:18.241Z,74.61
2023-01-02T19:29:49.298Z,75.52
2023-01-02T19:32:26.692Z,75.00
2023-01-02T19:34:57.206Z,74.95
2023-01-02T19:37:40.830Z,75.99
2023-01-02T19:40:19.586Z,75.55
2023-01-02T19:42:56.097Z,75.78
2023-01-02T19:45:25.760Z,75.50
2023-01-02T19:47:54.707Z,75.63
2023-01-02T19:50:24.669Z,75.58
2023-01-02T19:52:53.115Z,76.33
2023-01-02T19:55:23.010Z,76.42
2023-01-02T19:57:51.129Z,76.84
2023-01-02T20:00:21.589Z,76.53
2023-01-02T20:02:51.454Z,76.62
2023-01-02T20:05:22.858Z,77.07
2023-01-02T20:07:53.349Z,77.67
2023-01-02T20:10:23.273Z,78.25
2023-01-02T20:12:51.570Z,78.19
2023-01-02T20:15:23.823Z,78.53
2023-01-02T20:17:52.691Z,78.57
2023-01-02T20:20:22.700Z,79.05
2023-01-02T20:22:52.280Z,79.53
2023-01-02T20:25:24.376Z,79.17
2023-01-02T20:27:55.037Z,79.92
2023-01-02T20:30:24.983Z,79.55
2023-01-02T20:32:54.467Z,79.42
2023-01-02T20:35:23.711Z,79.79
2023-01-02T20:37:51.623Z,80.29
2023-01-02T20:40:19.974Z,79.94
2023-01-02T20:42:51.938Z,80.09
2023-01-02T20:45:19.885Z,80.45
2023-01-02T20:47:47.826Z,80.13
2023-01-02T20:50:15.827Z,80.15
2023-01-02T20:52:43.679Z,80.33
2023-01-02T20:55:13.288Z,80.58
2023-01-02T20:57:41.518Z,80.45
2023-01-02T21:00:13.550Z,80.78
2023-01-02T21:02:41.812Z,80.26
2023-01-02T21:05:10.311Z,80.53
2023-01-02T21:07:38.158Z,80.32
2023-01-02T21:10:08.078Z,80.86
2023-01-02T21:12:53.374Z,80.57
2023-01-02T21:15:45.998Z,80.56
2023-01-02T21:18:16.455Z,80.55
2023-01-02T21:20:46.694Z,80.12
2023-01-02T21:23:16.304Z,80.75
2023-01-02T21:25:44.821Z,81.14
2023-01-02T21:28:13.633Z,80.64
2023-01-02T21:30:45.177Z,79.91
2023-01-02T21:33:14.508Z,80.84
2023-01-02T21:35:43.153Z,80.69
2023-01-02T21:38:12.023Z,80.42
2023-01-02T21:40:39.927Z,80.11
2023-01-02T21:43:09.088Z,79.79
2023-01-02T21:45:37.526Z,79.82
2023-01-02T21:48:09.771Z,79.63
2023-01-02T21:50:37.739Z,79.74
2023-01-02T21:53:05.988Z,79.51
2023-01-02T21:55:33.849Z,79.47
2023-01-02T21:58:13.028Z,79.73
2023-01-02T22:00:41.577Z,80.26
2023-01-02T22:03:11.265Z,79.90
2023-01-02T22:05:39.424Z,79.70
2023-01-02T22:08:07.525Z,79.61
2023-01-02T22:10:35.686Z,80.23
2023-01-02T22:13:03.498Z,80.22
2023-01-02T22:15:31.288Z,80.61
2023-01-02T22:17:59.593Z,80.23
2023-01-02T22:20:28.799Z,80.42
2023-01-02T22:22:56.621Z,80.72
2023-01-02T22:25:24.867Z,80.56
2023-01-02T22:27:52.684Z,80.69
2023-01-02T22:30:27.523Z,81.19
2023-01-02T22:33:01.556Z,81.40
2023-01-02T22:35:30.851Z,81.43
2023-01-02T22:37:59.524Z,80.74
2023-01-02T22:40:28.904Z,80.35
2023-01-02T22:43:02.121Z,80.95
2023-01-02T22:45:37.082Z,81.02
2023-01-02T22:48:09.447Z,81.38
2023-01-02T22:50:44.953Z,81.07
2023-01-02T22:53:22.395Z,81.27
2023-01-02T22:55:50.759Z,80.88
2023-01-02T22:58:19.443Z,80.70
2023-01-02T23:00:48.696Z,80.29
2023-01-02T23:03:17.988Z,79.92
2023-01-02T23:05:47.153Z,79.73
2023-01-02T23:08:15.009Z,79.69
2023-01-02T23:10:42.905Z,78.89
2023-01-02T23:13:10.734Z,79.64
2023-01-02T23:16:00.001Z,79.90
2023-01-02T23:18:45.268Z,79.61
2023-01-02T23:21:14.647Z,79.36
2023-01-02T23:23:43.123Z,79.74
2023-01-02T23:26:11.916Z,79.22
2023-01-02T23:29:05.765Z,79.84
2023-01-02T23:31:27.987Z,79.14
2023-01-02T23:33:56.256Z,80.19
2023-01-02T23:36:25.799Z,79.67
2023-01-02T23:38:53.577Z,79.44
2023-01-02T23:41:21.866Z,80.14
2023-01-02T23:43:51.342Z,80.05
2023-01-02T23:46:19.576Z,80.56
2023-01-02T23:48:47.440Z,80.20
2023-01-02T23:51:15.599Z,80.85
2023-01-02T23:53:44.813Z,80.58
2023-01-02T23:56:20.877Z,80.84
2023-01-02T23:58:50.265Z,81.51
